CheckWX is a tool to help pilots better visualize weather data.  It is not intended as a substitute for an official pre-flight weather briefing.

18:36:21 UTC

KLXN METAR
Jim Kelly Field Airport
Lexington, Nebraska, USA
Current

21 mins ago

KLXN 261815Z AUTO 21009G14KT 10SM CLR 14/10 A3021 RMK AO2 T01410104
Observed
Mar-26 @ 18:15 UTC
Wind
  • 210° at 9 KTS
  • Gusting to 14 KTS
Visibility
10 SM
Flight Rules
VFR
Cloud Levels
  • Clear skies
Temperature
14°C / 57°F
Dewpoint
10°C / 50°F
Humidity
77%
Altimeter
30.21" Hg
Pressure
1023.02 hPa
Previous

41 mins ago

KLXN 261755Z AUTO 15005KT 10SM CLR 12/10 A3022 RMK AO2 T01200099 10120 20011
Observed
Mar-26 @ 17:55 UTC
Wind
  • 150° at 5 KTS
Visibility
10 SM
Flight Rules
VFR
Cloud Levels
  • Clear skies
Temperature
12°C / 54°F
Dewpoint
10°C / 50°F
Humidity
88%
Altimeter
30.22" Hg
Pressure
1023.42 hPa
Previous

1 hour ago

KLXN 261735Z AUTO 14007KT 10SM SCT007 11/10 A3023 RMK AO2 T01050098
Observed
Mar-26 @ 17:35 UTC
Wind
  • 140° at 7 KTS
Visibility
10 SM
Flight Rules
VFR
Cloud Levels
  • Scattered at 700' AGL
Temperature
11°C / 52°F
Dewpoint
10°C / 50°F
Humidity
94%
Altimeter
30.23" Hg
Pressure
1023.72 hPa